Time;durP1;ratioP1;P1;durP2;ratioP2;P2;SDS_P1;SDS_P2;PMS_P1;PMS_P2;Temp;Humidity;BMP_temperature;BMP_pressure;BME280_temperature;BME280_humidity;BME280_pressure;Samples;Min_cycle;Max_cycle;Signal;HPM_P1;HPM_P2
2021/08/29 00:01:58;;;;;;;6.97;4.67;;;14.50;91.70;;;;;;5075355;28;20174;-89
2021/08/29 00:04:24;;;;;;;6.27;4.40;;;14.60;91.90;;;;;;5093070;28;20715;-89
2021/08/29 00:06:50;;;;;;;5.77;3.87;;;14.50;91.80;;;;;;5075403;28;20171;-89
2021/08/29 00:09:15;;;;;;;15.03;4.30;;;14.50;91.90;;;;;;5074984;28;20202;-88
2021/08/29 00:11:41;;;;;;;7.87;5.37;;;14.60;92.00;;;;;;5075186;28;20175;-89
2021/08/29 00:14:07;;;;;;;8.83;4.17;;;14.50;92.00;;;;;;5075072;28;20178;-89
2021/08/29 00:16:33;;;;;;;7.83;5.03;;;14.50;92.00;;;;;;5093225;28;20633;-88
2021/08/29 00:18:58;;;;;;;5.57;4.40;;;14.40;92.00;;;;;;5074753;28;20218;-88
2021/08/29 00:21:24;;;;;;;10.00;4.53;;;14.40;92.10;;;;;;5075117;28;20205;-89
2021/08/29 00:23:50;;;;;;;8.40;4.97;;;14.40;92.10;;;;;;5092907;28;20194;-89
2021/08/29 00:26:15;;;;;;;5.47;4.40;;;14.40;92.10;;;;;;5074853;28;20210;-89
2021/08/29 00:28:42;;;;;;;8.90;4.23;;;14.50;92.10;;;;;;5074742;28;20702;-89
2021/08/29 00:31:08;;;;;;;10.03;4.63;;;14.50;92.00;;;;;;5094295;28;20210;-89
2021/08/29 00:33:34;;;;;;;5.27;4.53;;;14.50;91.90;;;;;;5078700;28;20198;-88
2021/08/29 00:36:00;;;;;;;6.77;5.37;;;14.40;92.00;;;;;;5078394;28;20221;-88
2021/08/29 00:38:25;;;;;;;6.40;4.77;;;14.50;92.10;;;;;;5078260;28;20213;-88
2021/08/29 00:40:51;;;;;;;6.43;4.83;;;14.50;92.00;;;;;;5078135;28;20179;-89
2021/08/29 00:43:21;;;;;;;7.07;4.80;;;14.50;92.00;;;;;;5078239;28;20195;-89
2021/08/29 00:45:47;;;;;;;8.20;4.57;;;14.40;92.00;;;;;;5079040;28;20652;-88
2021/08/29 00:48:13;;;;;;;7.27;4.70;;;14.40;92.10;;;;;;5078327;28;20194;-88
2021/08/29 00:50:44;;;;;;;10.03;5.20;;;14.50;92.10;;;;;;5078157;28;20181;-88
2021/08/29 00:53:11;;;;;;;5.40;4.77;;;14.50;92.10;;;;;;5096085;28;20209;-88
2021/08/29 00:55:38;;;;;;;13.17;5.23;;;14.40;92.10;;;;;;5095986;28;20564;-89
2021/08/29 00:58:04;;;;;;;7.43;5.30;;;14.50;92.10;;;;;;5095998;28;20255;-89
2021/08/29 01:00:33;;;;;;;6.33;5.47;;;14.50;92.10;;;;;;5096345;28;20565;-88
2021/08/29 01:02:59;;;;;;;10.03;5.73;;;14.50;92.10;;;;;;5095919;28;20256;-89
2021/08/29 01:05:37;;;;;;;8.30;5.27;;;14.50;92.10;;;;;;5095877;28;20209;-88
2021/08/29 01:08:10;;;;;;;12.57;5.93;;;14.50;92.10;;;;;;5077713;28;20194;-88
2021/08/29 01:10:46;;;;;;;13.70;5.67;;;14.50;92.10;;;;;;5077926;28;20163;-88
2021/08/29 01:13:23;;;;;;;9.67;5.87;;;14.40;92.00;;;;;;5095717;28;20190;-89
2021/08/29 01:15:55;;;;;;;8.23;5.10;;;14.40;92.00;;;;;;5077663;28;20169;-89
2021/08/29 01:18:23;;;;;;;9.03;5.27;;;14.40;92.00;;;;;;5077451;28;20614;-88
2021/08/29 01:20:58;;;;;;;9.77;5.70;;;14.40;92.00;;;;;;5077440;28;20179;-89
2021/08/29 01:23:24;;;;;;;11.73;5.70;;;14.40;92.10;;;;;;5077272;28;20657;-89
2021/08/29 01:25:59;;;;;;;8.63;5.70;;;14.40;92.10;;;;;;5077313;28;20635;-88
2021/08/29 01:28:45;;;;;;;13.35;6.05;;;14.40;92.00;;;;;;5095558;28;20186;-88
2021/08/29 01:31:11;;;;;;;8.90;5.23;;;14.40;91.90;;;;;;5077262;28;20159;-88
2021/08/29 01:33:37;;;;;;;9.47;5.63;;;14.50;92.00;;;;;;5077531;28;20716;-88
2021/08/29 01:36:04;;;;;;;7.93;5.70;;;14.40;91.90;;;;;;5077370;28;20174;-88
2021/08/29 01:38:30;;;;;;;6.53;4.97;;;14.40;91.90;;;;;;5077038;28;20221;-88
2021/08/29 01:40:56;;;;;;;9.53;5.70;;;14.40;91.90;;;;;;5095494;28;20536;-89
2021/08/29 01:43:22;;;;;;;8.93;5.10;;;14.40;91.90;;;;;;5095215;28;20229;-89
2021/08/29 01:45:47;;;;;;;10.23;5.90;;;14.40;92.00;;;;;;5077135;28;20638;-88
2021/08/29 01:48:13;;;;;;;8.00;5.50;;;14.40;92.00;;;;;;5095132;28;20182;-88
2021/08/29 01:50:41;;;;;;;8.53;5.73;;;14.40;91.90;;;;;;5077145;28;20170;-89
2021/08/29 01:53:06;;;;;;;8.83;5.30;;;14.40;91.80;;;;;;5077002;28;20589;-89
2021/08/29 01:55:32;;;;;;;8.50;5.57;;;14.30;91.80;;;;;;5095103;28;20252;-88
2021/08/29 01:57:58;;;;;;;7.97;5.30;;;14.40;92.00;;;;;;5076990;28;20194;-88
2021/08/29 02:00:24;;;;;;;8.70;5.20;;;14.30;92.00;;;;;;5077123;28;20171;-89
2021/08/29 02:02:49;;;;;;;13.50;5.37;;;14.40;92.10;;;;;;5076699;28;20693;-88
2021/08/29 02:05:15;;;;;;;11.70;6.27;;;14.30;92.10;;;;;;5094853;28;20236;-88
2021/08/29 02:07:46;;;;;;;6.03;4.85;;;14.30;92.30;;;;;;5094935;28;20235;-88
2021/08/29 02:10:13;;;;;;;7.50;5.60;;;14.30;92.30;;;;;;5094856;28;20155;-89
2021/08/29 02:12:50;;;;;;;12.23;4.93;;;14.30;92.30;;;;;;5095051;28;20170;-88
2021/08/29 02:15:44;;;;;;;8.93;4.87;;;14.30;92.30;;;;;;5077172;28;20208;-88
2021/08/29 02:18:12;;;;;;;5.97;4.73;;;14.30;92.30;;;;;;5092121;28;20203;-88
2021/08/29 02:20:39;;;;;;;6.17;4.80;;;14.30;92.30;;;;;;5076649;28;20595;-88
2021/08/29 02:23:05;;;;;;;6.55;4.57;;;14.30;92.40;;;;;;5094460;28;20244;-88
2021/08/29 02:25:32;;;;;;;8.60;5.53;;;14.30;92.40;;;;;;5094543;28;20163;-89
2021/08/29 02:27:58;;;;;;;5.37;4.37;;;14.30;92.50;;;;;;5094689;28;20202;-89
2021/08/29 02:30:25;;;;;;;8.53;5.20;;;14.30;92.50;;;;;;5076542;28;20170;-88
2021/08/29 02:32:52;;;;;;;6.43;4.40;;;14.30;92.40;;;;;;5094414;28;20163;-89
2021/08/29 02:35:18;;;;;;;5.70;4.70;;;14.30;92.30;;;;;;5076407;28;20174;-89
2021/08/29 02:37:44;;;;;;;7.37;4.90;;;14.30;92.40;;;;;;5094557;28;20197;-89
2021/08/29 02:40:11;;;;;;;6.13;4.77;;;14.30;92.30;;;;;;5094398;28;20167;-89
2021/08/29 02:42:39;;;;;;;5.87;4.00;;;14.30;92.50;;;;;;5076137;28;20289;-89
2021/08/29 02:45:08;;;;;;;5.67;4.33;;;14.30;92.50;;;;;;5094076;28;20656;-89
2021/08/29 02:47:33;;;;;;;7.53;4.37;;;14.20;92.60;;;;;;5076077;28;20171;-89
2021/08/29 02:49:59;;;;;;;6.77;4.83;;;14.30;92.70;;;;;;5094270;28;20190;-89
2021/08/29 02:52:26;;;;;;;5.47;4.60;;;14.30;92.50;;;;;;5094175;28;20162;-89
2021/08/29 02:54:52;;;;;;;7.03;4.03;;;14.30;92.60;;;;;;5075155;28;20285;-89
2021/08/29 02:57:20;;;;;;;7.13;4.50;;;14.30;92.50;;;;;;5076060;28;20173;-89
2021/08/29 02:59:46;;;;;;;4.63;4.17;;;14.30;92.50;;;;;;5093870;28;20243;-89
2021/08/29 03:02:12;;;;;;;4.60;3.88;;;14.30;92.60;;;;;;5075791;28;20203;-89
2021/08/29 03:04:39;;;;;;;5.27;3.97;;;14.30;92.50;;;;;;5093725;28;20234;-89
2021/08/29 03:07:05;;;;;;;9.03;4.50;;;14.30;92.60;;;;;;5075832;28;20166;-89
2021/08/29 03:09:33;;;;;;;6.50;3.70;;;14.30;92.60;;;;;;5075813;28;20190;-89
2021/08/29 03:12:03;;;;;;;7.10;3.77;;;14.30;92.50;;;;;;5075734;28;20639;-88
2021/08/29 03:14:31;;;;;;;7.03;4.80;;;14.30;92.50;;;;;;5076554;28;20171;-88
2021/08/29 03:16:58;;;;;;;5.07;4.57;;;14.30;92.50;;;;;;5075753;28;20186;-88
2021/08/29 03:19:24;;;;;;;5.03;4.47;;;14.30;92.60;;;;;;5093897;28;20209;-89
2021/08/29 03:21:50;;;;;;;4.45;3.88;;;14.30;92.60;;;;;;5094314;28;20166;-89
2021/08/29 03:24:16;;;;;;;5.33;4.37;;;14.30;92.70;;;;;;5075673;28;20205;-88
2021/08/29 03:26:43;;;;;;;6.77;4.53;;;14.30;92.40;;;;;;5094150;28;20253;-88
2021/08/29 03:29:09;;;;;;;4.90;4.40;;;14.30;92.50;;;;;;5075302;28;20197;-89
2021/08/29 03:31:35;;;;;;;6.30;4.47;;;14.30;92.50;;;;;;5093514;28;20634;-88
2021/08/29 03:34:03;;;;;;;5.10;4.60;;;14.30;92.60;;;;;;5093742;28;20166;-89
2021/08/29 03:36:31;;;;;;;7.97;4.80;;;14.30;92.60;;;;;;5075904;28;20181;-89
2021/08/29 03:38:59;;;;;;;9.43;4.77;;;14.30;92.70;;;;;;5075208;28;20206;-89
2021/08/29 03:41:27;;;;;;;7.40;5.53;;;14.30;92.50;;;;;;5075667;28;20185;-88
2021/08/29 03:43:54;;;;;;;7.10;4.63;;;14.30;92.50;;;;;;5075400;28;20207;-89
2021/08/29 03:46:21;;;;;;;8.40;4.70;;;14.20;92.60;;;;;;5075328;28;20171;-89
2021/08/29 03:48:46;;;;;;;5.37;4.40;;;14.30;92.60;;;;;;5093197;28;20236;-88
2021/08/29 03:51:14;;;;;;;5.17;4.67;;;14.20;92.70;;;;;;5075465;28;20186;-88
2021/08/29 03:53:40;;;;;;;13.87;5.30;;;14.30;92.80;;;;;;5075289;28;20175;-88
2021/08/29 03:56:06;;;;;;;8.80;5.30;;;14.30;92.80;;;;;;5093363;28;20171;-89
2021/08/29 03:58:38;;;;;;;6.93;5.33;;;14.30;92.70;;;;;;5076171;28;20198;-89
2021/08/29 04:01:04;;;;;;;6.97;5.07;;;14.30;92.80;;;;;;5075197;28;20178;-88
2021/08/29 04:03:30;;;;;;;11.00;5.60;;;14.30;92.80;;;;;;5075140;28;20198;-88
2021/08/29 04:06:00;;;;;;;9.37;5.70;;;14.20;92.80;;;;;;5077819;28;20171;-88
2021/08/29 04:08:38;;;;;;;8.20;5.60;;;14.20;92.90;;;;;;5078793;28;20677;-88
2021/08/29 04:11:04;;;;;;;6.80;5.33;;;14.30;93.00;;;;;;5079543;28;20167;-89
2021/08/29 04:13:31;;;;;;;9.10;5.50;;;14.30;92.80;;;;;;5078840;28;20221;-89
2021/08/29 04:16:01;;;;;;;6.83;5.23;;;14.20;92.90;;;;;;5078876;28;20185;-88
2021/08/29 04:18:27;;;;;;;12.40;5.43;;;14.20;92.90;;;;;;5078859;28;20272;-88
2021/08/29 04:20:53;;;;;;;7.47;5.30;;;14.30;93.00;;;;;;5078834;28;20550;-88
2021/08/29 04:23:19;;;;;;;6.53;5.20;;;14.30;93.00;;;;;;5078768;28;20194;-88
2021/08/29 04:25:45;;;;;;;10.53;5.73;;;14.30;93.00;;;;;;5096883;28;20171;-88
2021/08/29 04:28:11;;;;;;;9.53;6.00;;;14.30;93.00;;;;;;5078558;28;20197;-88
2021/08/29 04:30:36;;;;;;;11.80;6.50;;;14.30;92.90;;;;;;5078508;28;20167;-89
2021/08/29 04:33:02;;;;;;;9.07;6.20;;;14.30;93.00;;;;;;5078367;28;20202;-89
2021/08/29 04:35:28;;;;;;;10.20;7.30;;;14.30;93.00;;;;;;5096757;28;20650;-89
2021/08/29 04:37:53;;;;;;;9.90;6.57;;;14.30;93.10;;;;;;5078333;28;20182;-89
2021/08/29 04:40:19;;;;;;;12.40;6.60;;;14.30;93.20;;;;;;5096511;28;20163;-89
2021/08/29 04:42:45;;;;;;;9.20;6.90;;;14.30;93.10;;;;;;5078263;28;20623;-89
2021/08/29 04:45:11;;;;;;;13.27;7.40;;;14.30;93.10;;;;;;5078313;28;20167;-88
2021/08/29 04:47:37;;;;;;;11.40;6.83;;;14.30;93.10;;;;;;5078249;28;20650;-89
2021/08/29 04:50:04;;;;;;;10.63;7.13;;;14.30;93.20;;;;;;5077973;28;20220;-89
2021/08/29 04:52:30;;;;;;;11.47;6.17;;;14.30;93.30;;;;;;5078043;28;20178;-89
2021/08/29 04:54:56;;;;;;;15.83;6.97;;;14.30;93.20;;;;;;5078524;28;20224;-88
2021/08/29 04:57:22;;;;;;;9.73;7.30;;;14.30;93.30;;;;;;5096079;28;20171;-88
2021/08/29 04:59:48;;;;;;;14.57;7.40;;;14.30;93.40;;;;;;5096035;28;20186;-88
2021/08/29 05:02:13;;;;;;;10.60;7.17;;;14.30;93.40;;;;;;5078235;28;20178;-88
2021/08/29 05:04:39;;;;;;;11.23;7.27;;;14.30;93.30;;;;;;5077838;28;20194;-88
2021/08/29 05:07:05;;;;;;;11.47;7.27;;;14.30;93.40;;;;;;5077966;28;20515;-88
2021/08/29 05:09:30;;;;;;;13.43;7.67;;;14.30;93.40;;;;;;5095791;28;20763;-89
2021/08/29 05:11:56;;;;;;;12.63;7.10;;;14.30;93.40;;;;;;5096078;28;20277;-89
2021/08/29 05:14:21;;;;;;;13.27;7.43;;;14.30;93.50;;;;;;5077784;28;20227;-88
2021/08/29 05:16:47;;;;;;;15.10;8.30;;;14.30;93.50;;;;;;5076910;28;20643;-88
2021/08/29 05:19:13;;;;;;;14.30;7.80;;;14.40;93.50;;;;;;5077519;28;20195;-88
2021/08/29 05:21:38;;;;;;;12.70;7.70;;;14.40;93.50;;;;;;5095652;28;20175;-89
2021/08/29 05:24:04;;;;;;;12.10;7.70;;;14.40;93.50;;;;;;5095651;28;20203;-88
2021/08/29 05:26:30;;;;;;;18.60;7.28;;;14.30;93.50;;;;;;5078357;28;20197;-88
2021/08/29 05:28:56;;;;;;;10.95;6.75;;;14.40;93.60;;;;;;5077578;28;20674;-89
2021/08/29 05:31:21;;;;;;;12.27;7.17;;;14.40;93.60;;;;;;5077308;28;20175;-89
2021/08/29 05:33:47;;;;;;;9.87;7.20;;;14.40;93.60;;;;;;5077388;28;20174;-88
2021/08/29 05:36:13;;;;;;;10.00;6.80;;;14.50;93.50;;;;;;5095634;28;20235;-89
2021/08/29 05:38:38;;;;;;;9.90;6.47;;;14.50;93.60;;;;;;5077216;28;20329;-89
2021/08/29 05:41:04;;;;;;;12.50;6.97;;;14.40;93.60;;;;;;5077308;28;20190;-89
2021/08/29 05:43:30;;;;;;;10.33;6.63;;;14.50;93.60;;;;;;5076796;28;20287;-89
2021/08/29 05:45:55;;;;;;;12.10;6.63;;;14.50;93.50;;;;;;5077098;28;20178;-89
2021/08/29 05:48:21;;;;;;;13.33;6.30;;;14.50;93.60;;;;;;5077046;28;20216;-88
2021/08/29 05:50:47;;;;;;;11.37;7.27;;;14.50;93.70;;;;;;5076991;28;20642;-89
2021/08/29 05:53:12;;;;;;;10.47;6.47;;;14.50;93.60;;;;;;5095417;28;20174;-88
2021/08/29 05:55:38;;;;;;;9.23;5.80;;;14.50;93.60;;;;;;5076929;28;20205;-88
2021/08/29 05:58:04;;;;;;;6.80;5.63;;;14.50;93.70;;;;;;5094957;28;20201;-89
2021/08/29 06:00:29;;;;;;;12.37;6.33;;;14.50;93.70;;;;;;5077526;28;20182;-89
2021/08/29 06:02:55;;;;;;;6.03;4.73;;;14.60;93.70;;;;;;5076657;28;20198;-88
2021/08/29 06:05:21;;;;;;;8.83;5.20;;;14.60;93.70;;;;;;5076723;28;20269;-89
2021/08/29 06:07:46;;;;;;;8.20;5.50;;;14.60;93.60;;;;;;5076605;28;20265;-88
2021/08/29 06:10:12;;;;;;;7.43;5.20;;;14.50;93.60;;;;;;5076744;28;20229;-89
2021/08/29 06:12:39;;;;;;;9.07;5.33;;;14.60;93.70;;;;;;5094878;28;20253;-88
2021/08/29 06:15:06;;;;;;;9.13;5.20;;;14.60;93.70;;;;;;5076516;28;20183;-88
2021/08/29 06:17:31;;;;;;;12.80;6.50;;;14.70;93.70;;;;;;5076601;28;20217;-88
2021/08/29 06:19:57;;;;;;;10.13;4.97;;;14.60;93.70;;;;;;5076380;28;20198;-89
2021/08/29 06:22:23;;;;;;;8.70;5.63;;;14.70;93.70;;;;;;5076232;28;20653;-88
2021/08/29 06:24:48;;;;;;;9.73;5.93;;;14.70;93.70;;;;;;5076108;28;20237;-89
2021/08/29 06:27:14;;;;;;;7.50;5.10;;;14.70;93.70;;;;;;5076208;28;20292;-89
2021/08/29 06:29:39;;;;;;;14.75;6.28;;;14.80;93.90;;;;;;5076138;28;20273;-89
2021/08/29 06:32:06;;;;;;;9.27;6.23;;;14.80;93.80;;;;;;5076138;28;20270;-88
2021/08/29 06:34:31;;;;;;;6.43;5.55;;;14.80;93.80;;;;;;5077121;28;20616;-89
2021/08/29 06:36:57;;;;;;;8.43;5.60;;;14.80;93.70;;;;;;5076987;28;20206;-88
2021/08/29 06:39:23;;;;;;;8.83;5.47;;;14.80;93.80;;;;;;5093935;28;20704;-88
2021/08/29 06:41:48;;;;;;;8.25;4.88;;;14.80;93.80;;;;;;5075992;28;20551;-89
2021/08/29 06:44:14;;;;;;;6.60;5.00;;;14.90;93.80;;;;;;5075910;28;20222;-89
2021/08/29 06:46:40;;;;;;;11.93;5.15;;;14.90;93.80;;;;;;5093950;28;20220;-89
2021/08/29 06:49:05;;;;;;;8.83;4.80;;;14.90;93.80;;;;;;5093871;28;20648;-89
2021/08/29 06:51:31;;;;;;;10.07;4.25;;;15.00;93.80;;;;;;5075872;28;20248;-89
2021/08/29 06:53:57;;;;;;;7.88;4.32;;;15.00;93.80;;;;;;5093919;28;20171;-89
2021/08/29 06:56:23;;;;;;;5.55;4.00;;;15.00;93.70;;;;;;5075774;28;20187;-89
2021/08/29 06:58:48;;;;;;;4.70;3.72;;;15.00;93.70;;;;;;5075757;28;20248;-89
2021/08/29 07:01:14;;;;;;;6.85;3.97;;;15.00;93.70;;;;;;5075730;28;20174;-89
2021/08/29 07:03:39;;;;;;;6.55;3.75;;;15.00;93.60;;;;;;5093912;28;20221;-89
2021/08/29 07:06:06;;;;;;;5.07;3.60;;;15.00;93.60;;;;;;5075743;28;20634;-89
2021/08/29 07:08:32;;;;;;;7.20;3.58;;;15.10;93.60;;;;;;5094022;28;20195;-89
2021/08/29 07:10:58;;;;;;;8.15;4.07;;;15.20;93.70;;;;;;5075645;28;20174;-89
2021/08/29 07:13:23;;;;;;;4.97;3.40;;;15.20;93.70;;;;;;5094013;28;20209;-89
2021/08/29 07:15:49;;;;;;;5.28;3.20;;;15.20;93.60;;;;;;5075750;28;20179;-89
2021/08/29 07:18:15;;;;;;;3.63;3.25;;;15.20;93.60;;;;;;5075426;28;20209;-88
2021/08/29 07:20:41;;;;;;;4.05;3.30;;;15.30;93.60;;;;;;5075532;28;20537;-89
2021/08/29 07:23:06;;;;;;;4.13;3.10;;;15.30;93.70;;;;;;5075560;28;20224;-89
2021/08/29 07:25:32;;;;;;;5.18;3.13;;;15.30;93.70;;;;;;5075410;28;20179;-89
2021/08/29 07:27:58;;;;;;;4.32;3.20;;;15.40;93.80;;;;;;5075362;28;20216;-89
2021/08/29 07:30:23;;;;;;;3.50;2.97;;;15.50;93.80;;;;;;5075416;28;20288;-89
2021/08/29 07:32:49;;;;;;;3.38;3.08;;;15.50;93.80;;;;;;5075463;28;20179;-89
2021/08/29 07:35:14;;;;;;;4.60;3.35;;;15.60;93.80;;;;;;5075311;28;20535;-89
2021/08/29 07:37:40;;;;;;;3.53;3.22;;;15.60;93.80;;;;;;5093463;28;20186;-89
2021/08/29 07:40:07;;;;;;;6.53;2.83;;;15.70;93.90;;;;;;5076945;28;20634;-89
2021/08/29 07:42:32;;;;;;;3.15;2.80;;;15.70;93.80;;;;;;5079198;28;20190;-89
2021/08/29 07:44:58;;;;;;;3.58;2.78;;;15.80;93.80;;;;;;5097303;28;20537;-89
2021/08/29 07:47:25;;;;;;;6.50;3.22;;;15.80;93.80;;;;;;5079443;28;20175;-89
2021/08/29 07:49:50;;;;;;;4.13;2.67;;;15.90;93.80;;;;;;5097287;28;20193;-90
2021/08/29 07:52:16;;;;;;;3.38;1.90;;;15.90;93.80;;;;;;5079253;28;20171;-90
2021/08/29 07:54:42;;;;;;;3.53;2.35;;;15.90;93.70;;;;;;5079218;28;20175;-90
2021/08/29 07:57:07;;;;;;;2.30;2.08;;;15.90;93.60;;;;;;5097142;28;20167;-90
2021/08/29 07:59:33;;;;;;;2.53;2.20;;;16.00;93.70;;;;;;5097399;28;20202;-90
2021/08/29 08:01:59;;;;;;;3.40;2.30;;;16.00;93.50;;;;;;5079063;28;20544;-90
2021/08/29 08:04:24;;;;;;;3.47;2.25;;;16.00;93.50;;;;;;5078925;28;20236;-90
2021/08/29 08:06:50;;;;;;;2.75;2.10;;;16.00;93.60;;;;;;5079287;28;20167;-89
2021/08/29 08:09:15;;;;;;;3.03;2.40;;;16.10;93.60;;;;;;5096948;28;20244;-89
2021/08/29 08:11:41;;;;;;;2.70;2.17;;;16.10;93.50;;;;;;5097218;28;20170;-89
2021/08/29 08:14:07;;;;;;;6.90;2.63;;;16.20;93.70;;;;;;5079034;28;20315;-89
2021/08/29 08:16:32;;;;;;;7.53;2.00;;;16.20;93.60;;;;;;5078535;28;20202;-89
2021/08/29 08:18:58;;;;;;;3.03;2.30;;;16.20;93.60;;;;;;5096797;28;20222;-89
2021/08/29 08:21:24;;;;;;;3.03;2.15;;;16.30;93.60;;;;;;5079032;28;20175;-89
2021/08/29 08:23:49;;;;;;;3.28;2.00;;;16.30;93.60;;;;;;5078789;28;20195;-89
2021/08/29 08:26:16;;;;;;;2.63;1.98;;;16.40;93.60;;;;;;5078618;28;20175;-90
2021/08/29 08:28:41;;;;;;;3.17;1.80;;;16.40;93.70;;;;;;5078553;28;20274;-91
2021/08/29 08:31:09;;;;;;;1.80;1.63;;;16.40;93.60;;;;;;5097438;28;20578;-91
2021/08/29 08:33:34;;;;;;;2.47;1.70;;;16.30;93.50;;;;;;5078623;28;20189;-91
2021/08/29 08:36:00;;;;;;;2.35;1.70;;;16.40;93.50;;;;;;5079458;28;20534;-90
2021/08/29 08:38:26;;;;;;;2.28;1.35;;;16.40;93.50;;;;;;5078624;28;20215;-91
2021/08/29 08:40:52;;;;;;;1.92;1.70;;;16.40;93.60;;;;;;5078774;28;20178;-90
2021/08/29 08:43:18;;;;;;;4.00;1.40;;;16.40;93.50;;;;;;5096627;28;20600;-90
2021/08/29 08:45:46;;;;;;;2.55;1.20;;;16.50;93.60;;;;;;5096445;28;20158;-91
2021/08/29 08:48:14;;;;;;;3.83;1.50;;;16.50;93.60;;;;;;5078301;28;20194;-90
2021/08/29 08:50:45;;;;;;;1.45;1.35;;;16.50;93.60;;;;;;5095920;28;20178;-91
2021/08/29 08:53:14;;;;;;;1.27;1.00;;;16.60;93.60;;;;;;5077509;28;20650;-91
2021/08/29 08:55:41;;;;;;;1.20;1.10;;;16.60;93.50;;;;;;5078184;28;20178;-90
2021/08/29 08:58:09;;;;;;;1.40;1.30;;;16.70;93.40;;;;;;5079030;28;20206;-91
2021/08/29 09:00:34;;;;;;;2.10;1.20;;;16.70;93.50;;;;;;5078544;28;20542;-90
2021/08/29 09:03:01;;;;;;;2.63;1.08;;;16.70;93.40;;;;;;5096301;28;20186;-91
2021/08/29 09:05:27;;;;;;;1.58;1.13;;;16.80;93.40;;;;;;5077857;28;20171;-91
2021/08/29 09:07:52;;;;;;;2.00;1.50;;;16.80;93.30;;;;;;5078302;28;20224;-90
2021/08/29 09:10:18;;;;;;;1.60;1.50;;;16.80;93.10;;;;;;5078085;28;20216;-90
2021/08/29 09:12:56;;;;;;;1.58;1.45;;;16.70;93.10;;;;;;5096155;28;20175;-90
2021/08/29 09:15:22;;;;;;;2.28;1.77;;;16.80;93.20;;;;;;5077559;28;20175;-90
2021/08/29 09:17:48;;;;;;;3.88;1.85;;;16.80;93.50;;;;;;5077959;28;20167;-90
2021/08/29 09:20:16;;;;;;;2.47;1.60;;;16.80;93.50;;;;;;5077620;28;20200;-90
2021/08/29 09:22:44;;;;;;;2.22;1.88;;;16.80;93.40;;;;;;5095548;28;20171;-90
2021/08/29 09:25:22;;;;;;;2.38;2.00;;;16.80;93.50;;;;;;5077399;28;20202;-89
2021/08/29 09:27:50;;;;;;;2.83;2.10;;;16.80;93.60;;;;;;5077356;28;20259;-89
2021/08/29 09:30:17;;;;;;;2.33;1.92;;;16.80;93.60;;;;;;5095792;28;20167;-90
2021/08/29 09:32:52;;;;;;;2.35;2.17;;;16.80;93.70;;;;;;5095367;28;20208;-90
2021/08/29 09:35:19;;;;;;;3.33;2.05;;;16.80;93.70;;;;;;5095629;28;20150;-89
2021/08/29 09:37:45;;;;;;;2.95;2.15;;;16.90;93.60;;;;;;5095151;28;20166;-90
2021/08/29 09:40:19;;;;;;;2.50;2.13;;;16.90;93.60;;;;;;5077158;28;20177;-90
2021/08/29 09:42:46;;;;;;;6.28;2.50;;;17.00;93.60;;;;;;5077225;28;20170;-90
2021/08/29 09:45:31;;;;;;;3.08;2.63;;;16.90;93.50;;;;;;5077034;28;20174;-90
2021/08/29 09:48:00;;;;;;;4.18;2.70;;;16.90;93.60;;;;;;5076988;28;20254;-90
2021/08/29 09:50:27;;;;;;;2.90;2.60;;;17.00;93.70;;;;;;5076995;28;20253;-90
2021/08/29 09:53:04;;;;;;;3.78;3.22;;;17.00;93.80;;;;;;5076975;28;20170;-90
2021/08/29 09:55:32;;;;;;;4.22;3.17;;;17.20;94.00;;;;;;5077481;28;20170;-90
2021/08/29 09:57:59;;;;;;;3.63;2.63;;;17.20;93.80;;;;;;5076548;28;20257;-89
2021/08/29 10:00:25;;;;;;;3.55;3.00;;;17.20;93.60;;;;;;5076912;28;20174;-90
2021/08/29 10:03:06;;;;;;;4.50;2.97;;;17.20;93.60;;;;;;5076411;28;20183;-90
2021/08/29 10:05:32;;;;;;;5.35;3.13;;;17.30;93.70;;;;;;5076670;28;20182;-90
2021/08/29 10:08:07;;;;;;;3.03;2.65;;;17.40;93.30;;;;;;5076653;28;20174;-90
2021/08/29 10:10:37;;;;;;;4.50;2.95;;;17.50;93.00;;;;;;5076913;28;20162;-89
2021/08/29 10:13:04;;;;;;;4.82;2.78;;;17.60;93.10;;;;;;5076609;28;20622;-90
2021/08/29 10:15:32;;;;;;;2.50;2.30;;;17.60;92.40;;;;;;5076790;28;20213;-90
2021/08/29 10:18:00;;;;;;;8.43;3.28;;;17.40;92.20;;;;;;5076269;28;20179;-90
2021/08/29 10:20:27;;;;;;;3.97;3.08;;;17.50;92.50;;;;;;5077184;28;20238;-90
2021/08/29 10:22:53;;;;;;;3.33;3.03;;;17.30;92.20;;;;;;5076321;28;20273;-90
2021/08/29 10:25:19;;;;;;;5.43;3.92;;;17.30;92.00;;;;;;5076718;28;20193;-90
2021/08/29 10:28:11;;;;;;;4.88;3.55;;;17.30;92.20;;;;;;5077006;28;20171;-90
2021/08/29 10:30:40;;;;;;;4.05;3.65;;;17.20;92.30;;;;;;5077175;28;20745;-91
2021/08/29 10:33:11;;;;;;;6.20;4.47;;;17.20;92.50;;;;;;5094432;28;20306;-91
2021/08/29 10:35:39;;;;;;;6.47;4.50;;;17.20;92.60;;;;;;5094547;28;20525;-90
2021/08/29 10:38:05;;;;;;;7.93;4.90;;;17.10;92.30;;;;;;5075941;28;20214;-90
2021/08/29 10:40:34;;;;;;;6.18;4.88;;;17.10;92.10;;;;;;5094124;28;20170;-90
2021/08/29 10:43:02;;;;;;;6.18;5.18;;;17.10;92.40;;;;;;5076051;28;20198;-90
2021/08/29 10:45:28;;;;;;;8.32;5.93;;;17.10;92.50;;;;;;5075907;28;20171;-90
2021/08/29 10:47:54;;;;;;;8.52;5.90;;;17.00;92.40;;;;;;5076223;28;20519;-90
2021/08/29 10:50:21;;;;;;;7.20;5.35;;;17.00;92.60;;;;;;5076125;28;20193;-90
2021/08/29 10:52:47;;;;;;;8.65;6.03;;;17.00;92.20;;;;;;5094173;28;20168;-90
2021/08/29 10:55:15;;;;;;;8.20;6.43;;;17.00;92.20;;;;;;5094087;28;20177;-89
2021/08/29 10:57:42;;;;;;;8.05;6.55;;;17.00;92.40;;;;;;5075999;28;20174;-89
2021/08/29 11:00:26;;;;;;;7.70;6.25;;;17.00;92.30;;;;;;5093789;28;20171;-89
2021/08/29 11:02:53;;;;;;;10.05;7.05;;;17.00;92.30;;;;;;5093688;28;20155;-90
2021/08/29 11:05:28;;;;;;;7.80;6.38;;;17.00;92.30;;;;;;5076038;28;20321;-90
2021/08/29 11:07:55;;;;;;;7.93;7.10;;;17.00;92.30;;;;;;5093927;28;20216;-90
2021/08/29 11:10:38;;;;;;;6.70;6.00;;;17.00;92.40;;;;;;5075836;28;20212;-89
2021/08/29 11:13:33;;;;;;;10.45;6.95;;;17.00;92.00;;;;;;5075661;28;20634;-90
2021/08/29 11:16:12;;;;;;;10.65;6.47;;;17.00;92.20;;;;;;5093022;28;20259;-90
2021/08/29 11:18:59;;;;;;;13.52;6.85;;;17.00;92.20;;;;;;5093613;28;20187;-90
2021/08/29 11:21:54;;;;;;;11.32;6.57;;;17.10;92.30;;;;;;5076450;28;20228;-90
2021/08/29 11:24:50;;;;;;;10.27;7.15;;;17.10;92.20;;;;;;5075087;28;20194;-89
2021/08/29 11:27:34;;;;;;;10.65;7.25;;;17.10;92.40;;;;;;5075733;28;20220;-89
2021/08/29 11:30:16;;;;;;;9.38;6.70;;;17.20;92.40;;;;;;5075513;28;20308;-89
2021/08/29 11:32:51;;;;;;;9.40;6.57;;;17.20;92.20;;;;;;5075446;28;20174;-89
2021/08/29 11:35:18;;;;;;;9.80;7.50;;;17.30;92.10;;;;;;5075708;28;20166;-89
2021/08/29 11:38:01;;;;;;;9.73;6.25;;;17.40;91.80;;;;;;5075560;28;20588;-90
2021/08/29 11:40:49;;;;;;;12.85;6.88;;;17.40;91.40;;;;;;5075601;28;20167;-91
2021/08/29 11:43:37;;;;;;;11.68;5.95;;;17.40;90.90;;;;;;5075222;28;20260;-90
2021/08/29 11:46:12;;;;;;;9.25;5.85;;;17.50;90.90;;;;;;5075221;28;20203;-90
2021/08/29 11:48:48;;;;;;;6.38;5.75;;;17.50;91.00;;;;;;5093343;28;20182;-90
2021/08/29 11:51:21;;;;;;;9.13;5.60;;;17.60;90.60;;;;;;5093692;28;20634;-90
2021/08/29 11:53:49;;;;;;;8.00;5.28;;;17.50;89.90;;;;;;5075376;28;20257;-89
2021/08/29 11:56:18;;;;;;;6.30;5.13;;;17.60;89.90;;;;;;5075084;28;20189;-89
2021/08/29 11:58:46;;;;;;;9.40;5.43;;;17.60;90.00;;;;;;5075251;28;20199;-89
2021/08/29 12:01:12;;;;;;;5.82;4.45;;;17.70;90.00;;;;;;5075024;28;20206;-89
2021/08/29 12:03:39;;;;;;;5.82;4.63;;;17.80;89.90;;;;;;5075049;28;20682;-89
2021/08/29 12:06:08;;;;;;;5.50;5.00;;;17.90;89.90;;;;;;5075408;28;20682;-89
2021/08/29 12:08:43;;;;;;;4.70;4.20;;;17.90;89.40;;;;;;5074815;28;20187;-89
2021/08/29 12:11:11;;;;;;;6.55;4.85;;;17.80;89.50;;;;;;5075060;28;20542;-89
2021/08/29 12:13:37;;;;;;;8.60;5.20;;;17.80;89.70;;;;;;5075050;28;20639;-90
2021/08/29 12:16:04;;;;;;;5.88;4.70;;;17.80;89.90;;;;;;5075447;28;20183;-90
2021/08/29 12:18:34;;;;;;;5.50;4.90;;;17.80;89.50;;;;;;5075322;28;20202;-89
2021/08/29 12:21:03;;;;;;;4.60;4.18;;;18.00;90.30;;;;;;5075051;28;20207;-90
2021/08/29 12:23:30;;;;;;;5.53;3.75;;;18.20;89.80;;;;;;5074932;28;20194;-90
2021/08/29 12:26:02;;;;;;;4.30;3.83;;;18.30;89.10;;;;;;5075935;28;20312;-90
2021/08/29 12:28:29;;;;;;;5.22;3.92;;;18.20;88.60;;;;;;5078509;28;20281;-90
2021/08/29 12:30:56;;;;;;;4.78;4.28;;;18.20;88.90;;;;;;5078529;28;20173;-90
2021/08/29 12:33:23;;;;;;;4.20;3.80;;;18.20;88.60;;;;;;5078435;28;20227;-90
2021/08/29 12:35:49;;;;;;;8.43;4.32;;;18.00;89.10;;;;;;5096935;28;20312;-90
2021/08/29 12:38:23;;;;;;;3.63;3.30;;;18.10;89.20;;;;;;5078329;28;20229;-89
2021/08/29 12:40:50;;;;;;;6.72;4.03;;;18.10;88.40;;;;;;5078346;28;20167;-90
2021/08/29 12:43:16;;;;;;;6.35;3.63;;;18.20;89.10;;;;;;5096263;28;20206;-90
2021/08/29 12:45:43;;;;;;;6.78;4.05;;;18.20;88.20;;;;;;5078434;28;20170;-90
2021/08/29 12:48:09;;;;;;;5.40;3.83;;;18.30;87.70;;;;;;5078107;28;20224;-89
2021/08/29 12:50:53;;;;;;;4.85;3.97;;;18.40;88.60;;;;;;5078147;28;20179;-89